• Join FlightAware (Why Join?)
  • Login
  • US Flag 
08:36PM EDT


 

Airport Tracker/Info


-or-


 

Live Flight TrackerFlight Track Log ✈ TAM3596 ✈ 19-May-2013 ✈ SBBR / BSB - SBCY / CGB

Flight Track Log - Related Links

Times and Time Zones

All times are in EDT time to prevent confusion due to time zone crossing. See the TAM3596 flight status page for this flight to view local times or setup timezone preferences in your user account.

Time Position Orientation Groundspeed Altitude Reporting Facility
EDT Latitude Longitude Course Direction KTS MPH feet Rate Location/Type
11:29PM -15.8399 -49.9140 270° West  Level Estimated
11:30PM -15.8383 -50.0140 271° West  Level Estimated
11:31PM -15.8366 -50.1141 271° West  Level Estimated
11:32PM -15.8349 -50.2141 271° West  Level Estimated
11:33PM -15.8331 -50.3142 271° West  Level Estimated
11:34PM -15.8313 -50.4142 271° West  Level Estimated
11:35PM -15.8295 -50.5143 271° West  Level Estimated
11:36PM -15.8276 -50.6143 271° West  Level Estimated
11:37PM -15.8256 -50.7144 271° West  Level Estimated
11:38PM -15.8237 -50.8144 271° West  Level Estimated
11:39PM -15.8216 -50.9144 271° West  Level Estimated
11:40PM -15.8195 -51.0145 271° West  Level Estimated
11:41PM -15.8174 -51.1145 271° West  Level Estimated
11:42PM -15.8153 -51.2145 271° West  Level Estimated
11:43PM -15.8131 -51.3145 271° West  Level Estimated
11:44PM -15.8108 -51.4146 271° West  Level Estimated
11:45PM -15.8085 -51.5146 271° West  Level Estimated
11:46PM -15.8061 -51.6146 271° West  Level Estimated
11:47PM -15.8037 -51.7146 271° West  Level Estimated
11:48PM -15.8013 -51.8147 271° West  Level Estimated
11:49PM -15.7988 -51.9147 271° West  Level Estimated
11:50PM -15.7963 -52.0147 271° West  Level Estimated
11:51PM -15.7937 -52.1147 272° West  Level Estimated
11:52PM -15.7911 -52.2147 272° West  Level Estimated
11:53PM -15.7884 -52.3147 272° West  Level Estimated
11:54PM -15.7857 -52.4147 272° West  Level Estimated
11:55PM -15.7829 -52.5147 272° West  Level Estimated
11:56PM -15.7801 -52.6147 272° West  Level Estimated
11:57PM -15.7773 -52.7147 272° West  Level Estimated
11:58PM -15.7744 -52.8147 272° West  Level Estimated
11:59PM -15.7714 -52.9147 272° West  Level Estimated
12:00AM -15.7684 -53.0146 272° West  Level Estimated
12:01AM -15.7654 -53.1146 272° West  Level Estimated
12:02AM -15.7623 -53.2146 272° West  Level Estimated
12:03AM -15.7592 -53.3146 272° West  Level Estimated
12:04AM -15.7560 -53.4146 272° West  Level Estimated
12:05AM -15.7528 -53.5145 272° West  Level Estimated
12:06AM -15.7495 -53.6145 272° West  Level Estimated
12:07AM -15.7462 -53.7145 272° West  Level Estimated
12:08AM -15.7428 -53.8144 272° West  Level Estimated
12:09AM -15.7394 -53.9144 272° West  Level Estimated
12:10AM -15.7360 -54.0143 272° West  Level Estimated
12:11AM -15.7325 -54.1143 272° West  Level Estimated
12:12AM -15.7290 -54.2142 272° West  Level Estimated
12:13AM -15.7254 -54.3142 272° West  Level Estimated
12:14AM -15.7218 -54.4141 272° West  Level Estimated
12:15AM -15.7181 -54.5140 272° West  Level Estimated
12:16AM -15.7144 -54.6140 272° West  Level Estimated
12:17AM -15.7106 -54.7139 272° West  Level Estimated
12:18AM -15.7068 -54.8138 272° West  Level Estimated
12:19AM -15.7029 -54.9137 272° West  Level Estimated
12:20AM -15.6990 -55.0136 272° West  Level Estimated
12:21AM -15.6951 -55.1136 272° West  Level Estimated
12:22AM -15.6911 -55.2135 272° West  Level Estimated
12:23AM -15.6870 -55.3134 272° West  Level Estimated
12:24AM -15.6830 -55.4133 272° West  Level Estimated
12:25AM -15.6788 -55.5132 272° West  Level Estimated
12:26AM -15.6747 -55.6131 272° West  Level Estimated
12:27AM -15.6704 -55.7130 272° West  Level Estimated
12:28AM -15.6662 -55.8128 273° West  Level Estimated
12:29AM -15.6619 -55.9127 273° West  Level Estimated
12:30AM -15.6575 -56.0126 273° West  Level Estimated
12:31AM -15.6531 -56.1125 273° West  Level Estimated
12:32AM -15.6529 -56.1167 273° West  Level Estimated
12:33AM -15.6529 -56.1167 136° Southeast  Level Estimated
12:34AM -15.6529 -56.1167 136° Southeast  Level Estimated
12:35AM -15.6529 -56.1167 136° Southeast  Level Estimated
12:36AM -15.6529 -56.1167 136° Southeast  Level Estimated
12:37AM -15.6529 -56.1167 136° Southeast  Level Estimated
12:38AM -15.6529 -56.1167 136° Southeast  Level Estimated
12:39AM -15.6529 -56.1167 136° Southeast  Level Estimated
12:40AM -15.6529 -56.1167 136° Southeast  Level Estimated
12:41AM -15.6529 -56.1167 136° Southeast  Level Estimated
12:42AM -15.6529 -56.1167 136° Southeast  Level Estimated
12:43AM -15.6529 -56.1167 136° Southeast  Level Estimated
12:44AM -15.6529 -56.1167 136° Southeast  Level Estimated
12:45AM -15.6529 -56.1167 136° Southeast  Level Estimated
12:46AM -15.6529 -56.1167 136° Southeast  Level Estimated
12:47AM -15.6529 -56.1167 136° Southeast  Level Estimated